Fairbanks International Airport Fairbanks US
ICAO: PAFA
IATA: FAI
Category: Large
Scheduled Services:

Elevation: 439 ft
TransAlt. 18000 ft.

Airport Communications:
APP:118.6
ASOS:119.025
ATIS:124.4
TWEB:108.2
CLNC DEL:127.6
DEP:32.71
RDO:122.6
GND:121.9
EIELSON RANGE CON:125.3
TWR:118.3
UNICOM:122.95

PAFA Zoom In..

If Map Doesn't Load, Click Here

Runways:

(A) RW 02 length 2900 ft width 75 ft
---- / hdg 17

(B) RW 02L length 11800 ft width 150 ft
ILS 109.10 / hdg 17

(C) RW 02R length 6501 ft width 100 ft
---- / hdg 17

(D) RW 20 length 2900 ft width 75 ft
---- / hdg 197

(E) RW 20L length 6501 ft width 100 ft
---- / hdg 197

(F) RW 20R length 11800 ft width 150 ft
ILS 110.30 / hdg 197

Location; PAFA
Day. 21 / Time. 15.24 Zulu
* Altimeter: 29.96
* Temperature: 08° c. 46.4°f.
* Wind from: 000° Speed 00 kn.
Dewpoint: 08° c.
Visibility: 2 Statute Miles.
Clouds: Broken 300 ft.
Clouds: Broken 1500 ft.
Clouds: Overcast 3000 ft.
Conditions: Rain.Conditions: Mist.

PAFA 211524Z 00000KT 2SM RA BR BKN003 BKN015 OVC030 08/08 A2996 RMK AO2 P0002 T00780078


Wind - Calm.

 
 
jpsmedia.com for Web Design worldairports.se 2018   terms of use